createdAt,value
2018-10-16T00:01:34.724Z,97285.80
2018-10-16T00:04:03.307Z,97285.03
2018-10-16T00:06:31.883Z,97287.97
2018-10-16T00:09:00.491Z,97290.58
2018-10-16T00:11:29.267Z,97288.86
2018-10-16T00:13:57.835Z,97292.52
2018-10-16T00:16:26.527Z,97292.44
2018-10-16T00:18:55.109Z,97292.73
2018-10-16T00:21:23.688Z,97292.23
2018-10-16T00:23:52.644Z,97297.31
2018-10-16T00:26:21.227Z,97299.62
2018-10-16T00:28:49.811Z,97304.66
2018-10-16T00:31:18.500Z,97303.06
2018-10-16T00:33:47.105Z,97297.67
2018-10-16T00:36:15.676Z,97297.47
2018-10-16T00:38:44.303Z,97300.02
2018-10-16T00:41:12.895Z,97303.83
2018-10-16T00:43:41.487Z,97305.55
2018-10-16T00:46:10.081Z,97295.58
2018-10-16T00:48:38.679Z,97300.75
2018-10-16T00:51:07.262Z,97303.74
2018-10-16T00:53:36.181Z,97301.28
2018-10-16T00:56:04.773Z,97298.89
2018-10-16T00:58:33.340Z,97303.29
2018-10-16T01:01:01.956Z,97297.61
2018-10-16T01:03:30.552Z,97303.79
2018-10-16T01:05:59.340Z,97303.00
2018-10-16T01:08:27.932Z,97306.28
2018-10-16T01:10:56.519Z,97311.13
2018-10-16T01:13:25.084Z,97309.64
2018-10-16T01:15:53.705Z,97316.14
2018-10-16T01:18:22.304Z,97319.05
2018-10-16T01:20:50.868Z,97319.58
2018-10-16T01:23:19.796Z,97319.19
2018-10-16T01:25:48.385Z,97323.53
2018-10-16T01:28:16.974Z,97319.03
2018-10-16T01:30:45.687Z,97317.62
2018-10-16T01:33:14.245Z,97322.20
2018-10-16T01:35:42.819Z,97323.00
2018-10-16T01:38:11.393Z,97322.51
2018-10-16T01:40:39.959Z,97318.89
2018-10-16T01:43:08.552Z,97312.92
2018-10-16T01:45:37.228Z,97320.11
2018-10-16T01:48:06.130Z,97313.16
2018-10-16T01:50:34.700Z,97317.42
2018-10-16T01:53:03.699Z,97312.24
2018-10-16T01:55:32.268Z,97315.02
2018-10-16T01:58:00.848Z,97312.62
2018-10-16T02:00:29.524Z,97312.90
2018-10-16T02:02:58.131Z,97311.63
2018-10-16T02:05:26.728Z,97314.70
2018-10-16T02:07:55.664Z,97314.84
2018-10-16T02:10:24.237Z,97317.53
2018-10-16T02:12:52.800Z,97321.40
2018-10-16T02:15:21.655Z,97315.04
2018-10-16T02:17:50.287Z,97326.37
2018-10-16T02:20:18.904Z,97325.49
2018-10-16T02:22:47.531Z,97327.34
2018-10-16T02:25:16.123Z,97330.28
2018-10-16T02:27:44.704Z,97337.52
2018-10-16T02:30:13.555Z,97332.81
2018-10-16T02:32:42.115Z,97334.83
2018-10-16T02:35:11.907Z,97336.55
2018-10-16T02:37:40.604Z,97339.73
2018-10-16T02:40:10.407Z,97337.23
2018-10-16T02:42:39.840Z,97337.82
2018-10-16T02:45:10.288Z,97338.73
2018-10-16T02:47:39.477Z,97342.83
2018-10-16T02:50:08.980Z,97349.23
2018-10-16T02:52:37.956Z,97354.13
2018-10-16T02:55:08.201Z,97346.55
2018-10-16T02:57:36.800Z,97351.50
2018-10-16T03:00:05.569Z,97352.00
2018-10-16T03:02:34.256Z,97359.45
2018-10-16T03:05:02.821Z,97362.96
2018-10-16T03:07:31.410Z,97371.16
2018-10-16T03:10:00.281Z,97368.50
2018-10-16T03:12:28.864Z,97369.55
2018-10-16T03:14:57.440Z,97368.41
2018-10-16T03:17:26.116Z,97368.77
2018-10-16T03:19:54.723Z,97375.56
2018-10-16T03:22:23.420Z,97375.20
2018-10-16T03:24:52.052Z,97376.96
2018-10-16T03:27:20.659Z,97376.16
2018-10-16T03:29:49.227Z,97381.81
2018-10-16T03:32:17.832Z,97382.13
2018-10-16T03:34:46.427Z,97380.06
2018-10-16T03:37:14.993Z,97388.96
2018-10-16T03:39:43.604Z,97382.25
2018-10-16T03:42:12.188Z,97388.08
2018-10-16T03:44:40.778Z,97389.17
2018-10-16T03:47:09.444Z,97389.36
2018-10-16T03:49:38.004Z,97386.06
2018-10-16T03:52:06.619Z,97393.17
2018-10-16T03:54:35.240Z,97392.08
2018-10-16T03:57:03.884Z,97387.88
2018-10-16T03:59:32.448Z,97390.86
2018-10-16T04:02:01.059Z,97393.79
2018-10-16T04:04:29.657Z,97388.39
2018-10-16T04:06:58.276Z,97396.06
2018-10-16T04:09:26.867Z,97392.73
2018-10-16T04:11:55.507Z,97393.55
2018-10-16T04:14:24.212Z,97388.52
2018-10-16T04:16:52.840Z,97400.98
2018-10-16T04:19:21.464Z,97396.16
2018-10-16T04:21:50.039Z,97401.23
2018-10-16T04:24:18.735Z,97401.80
2018-10-16T04:26:47.304Z,97396.61
2018-10-16T04:29:16.113Z,97395.77
2018-10-16T04:31:44.652Z,97400.85
2018-10-16T04:34:13.215Z,97400.15
2018-10-16T04:36:41.790Z,97394.75
2018-10-16T04:39:12.563Z,97397.85
2018-10-16T04:41:41.210Z,97395.75
2018-10-16T04:44:09.773Z,97395.83
2018-10-16T04:46:38.547Z,97387.34
2018-10-16T04:49:07.351Z,97396.85
2018-10-16T04:51:35.948Z,97397.30
2018-10-16T04:54:04.662Z,97393.09
2018-10-16T04:56:33.463Z,97396.85
2018-10-16T04:59:02.042Z,97392.14
2018-10-16T05:01:30.676Z,97398.12
2018-10-16T05:03:59.305Z,97396.78
2018-10-16T05:06:27.853Z,97398.48
2018-10-16T05:08:56.471Z,97397.38
2018-10-16T05:11:25.052Z,97398.69
2018-10-16T05:13:53.616Z,97399.95
2018-10-16T05:16:22.315Z,97398.05
2018-10-16T05:18:50.940Z,97401.81
2018-10-16T05:21:19.511Z,97407.20
2018-10-16T05:23:48.193Z,97413.86
2018-10-16T05:26:16.808Z,97412.84
2018-10-16T05:28:45.368Z,97416.97
2018-10-16T05:31:14.142Z,97417.02
2018-10-16T05:33:42.642Z,97416.14
2018-10-16T05:36:11.216Z,97419.27
2018-10-16T05:38:39.844Z,97421.92
2018-10-16T05:41:08.801Z,97425.80
2018-10-16T05:43:37.368Z,97425.44
2018-10-16T05:46:06.303Z,97425.80
2018-10-16T05:48:34.895Z,97430.05
2018-10-16T05:51:03.463Z,97427.20
2018-10-16T05:53:32.064Z,97432.76
2018-10-16T05:56:03.522Z,97430.10
2018-10-16T05:58:32.315Z,97432.39
2018-10-16T06:01:00.926Z,97437.32
2018-10-16T06:03:29.520Z,97435.69
2018-10-16T06:05:58.127Z,97440.93
2018-10-16T06:08:26.691Z,97445.30
2018-10-16T06:10:55.322Z,97448.11
2018-10-16T06:13:23.903Z,97452.36
2018-10-16T06:15:52.514Z,97456.55
2018-10-16T06:18:21.040Z,97452.83
2018-10-16T06:20:49.676Z,97451.44
2018-10-16T06:23:18.235Z,97456.52
2018-10-16T06:25:46.831Z,97461.39
2018-10-16T06:28:22.136Z,97463.33
2018-10-16T06:30:50.728Z,97466.26
2018-10-16T06:33:23.407Z,97471.34
2018-10-16T06:35:51.948Z,97471.53
2018-10-16T06:38:20.590Z,97469.44
2018-10-16T06:40:49.710Z,97467.84
2018-10-16T06:43:18.197Z,97470.82
2018-10-16T06:45:47.053Z,97473.92
2018-10-16T06:48:15.920Z,97474.50
2018-10-16T06:50:44.236Z,97478.07
2018-10-16T06:53:12.903Z,97475.02
2018-10-16T06:55:41.684Z,97481.90
2018-10-16T06:58:10.252Z,97484.38
2018-10-16T07:00:38.839Z,97483.30
2018-10-16T07:03:07.608Z,97482.09
2018-10-16T07:05:36.184Z,97484.94
2018-10-16T07:08:04.768Z,97485.37
2018-10-16T07:10:33.419Z,97488.45
2018-10-16T07:13:02.392Z,97488.45
2018-10-16T07:15:30.971Z,97485.95
2018-10-16T07:17:59.684Z,97487.27
2018-10-16T07:20:28.290Z,97494.22
2018-10-16T07:22:56.855Z,97496.61
2018-10-16T07:25:25.706Z,97497.27
2018-10-16T07:27:54.296Z,97498.16
2018-10-16T07:30:23.036Z,97497.88
2018-10-16T07:32:51.628Z,97495.13
2018-10-16T07:35:20.219Z,97496.55
2018-10-16T07:37:48.855Z,97497.50
2018-10-16T07:40:17.392Z,97499.75
2018-10-16T07:42:45.957Z,97503.97
2018-10-16T07:45:14.550Z,97508.28
2018-10-16T07:47:43.148Z,97509.63
2018-10-16T07:50:12.733Z,97512.59
2018-10-16T07:52:41.327Z,97514.19
2018-10-16T07:55:12.461Z,97514.73
2018-10-16T07:57:41.510Z,97522.73
2018-10-16T08:00:11.801Z,97526.32
2018-10-16T08:02:41.267Z,97530.55
2018-10-16T08:05:11.096Z,97530.28
2018-10-16T08:07:40.423Z,97531.03
2018-10-16T08:10:10.392Z,97532.91
2018-10-16T08:12:39.004Z,97525.74
2018-10-16T08:15:08.409Z,97534.59
2018-10-16T08:17:36.991Z,97532.58
2018-10-16T08:20:05.796Z,97531.02
2018-10-16T08:22:34.380Z,97535.29
2018-10-16T08:25:02.936Z,97528.95
2018-10-16T08:27:31.652Z,97527.20
2018-10-16T08:30:00.307Z,97530.87
2018-10-16T08:32:28.820Z,97523.67
2018-10-16T08:34:58.128Z,97531.66
2018-10-16T08:37:37.939Z,97524.53
2018-10-16T08:40:07.204Z,97518.28
2018-10-16T08:43:49.242Z,97524.71
2018-10-16T08:46:29.672Z,97524.14
2018-10-16T08:49:09.984Z,97523.77
2018-10-16T08:51:43.507Z,97531.35
2018-10-16T08:54:12.083Z,97530.21
2018-10-16T08:56:40.668Z,97526.34
2018-10-16T08:59:09.420Z,97526.28
2018-10-16T09:01:38.053Z,97521.78
2018-10-16T09:04:06.811Z,97523.91
2018-10-16T09:06:35.620Z,97527.71
2018-10-16T09:09:05.399Z,97519.54
2018-10-16T09:11:33.960Z,97518.05
2018-10-16T09:14:02.659Z,97522.27
2018-10-16T09:16:31.187Z,97525.66
2018-10-16T09:18:59.743Z,97524.45
2018-10-16T09:21:28.576Z,97528.38
2018-10-16T09:23:57.128Z,97521.22
2018-10-16T09:26:25.715Z,97528.45
2018-10-16T09:28:54.371Z,97527.08
2018-10-16T09:31:22.939Z,97521.75
2018-10-16T09:33:51.516Z,97527.62
2018-10-16T09:36:20.147Z,97523.61
2018-10-16T09:38:48.711Z,97526.98
2018-10-16T09:41:17.272Z,97527.34
2018-10-16T09:43:45.864Z,97529.77
2018-10-16T09:46:14.451Z,97525.56
2018-10-16T09:48:43.027Z,97527.33
2018-10-16T09:51:12.055Z,97521.12
2018-10-16T09:53:40.596Z,97522.24
2018-10-16T09:56:09.192Z,97517.20
2018-10-16T09:58:37.786Z,97519.02
2018-10-16T10:01:11.634Z,97523.88
2018-10-16T10:03:40.240Z,97528.52
2018-10-16T10:06:08.795Z,97521.41
2018-10-16T10:08:37.352Z,97524.66
2018-10-16T10:11:06.485Z,97524.92
2018-10-16T10:13:35.017Z,97527.78
2018-10-16T10:16:03.624Z,97526.17
2018-10-16T10:18:32.214Z,97529.67
2018-10-16T10:21:00.767Z,97523.64
2018-10-16T10:23:29.401Z,97529.62
2018-10-16T10:25:58.023Z,97527.36
2018-10-16T10:28:26.599Z,97525.14
2018-10-16T10:30:55.160Z,97523.78
2018-10-16T10:33:23.836Z,97519.42
2018-10-16T10:35:52.420Z,97520.20
2018-10-16T10:38:20.984Z,97515.10
2018-10-16T10:40:49.596Z,97513.47
2018-10-16T10:43:18.151Z,97516.07
2018-10-16T10:45:46.718Z,97516.78
2018-10-16T10:48:15.423Z,97507.28
2018-10-16T10:50:44.160Z,97513.13
2018-10-16T10:53:12.600Z,97505.89
2018-10-16T10:55:41.196Z,97506.42
2018-10-16T10:58:09.868Z,97498.15
2018-10-16T11:00:38.420Z,97507.25
2018-10-16T11:03:07.092Z,97500.24
2018-10-16T11:05:35.628Z,97502.17
2018-10-16T11:08:04.199Z,97501.54
2018-10-16T11:10:32.776Z,97506.06
2018-10-16T11:13:02.132Z,97499.59
2018-10-16T11:15:30.702Z,97493.17
2018-10-16T11:17:59.384Z,97500.19
2018-10-16T11:20:27.951Z,97496.35
2018-10-16T11:22:56.512Z,97502.98
2018-10-16T11:25:25.144Z,97498.52
2018-10-16T11:27:53.723Z,97501.28
2018-10-16T11:30:22.360Z,97501.44
2018-10-16T11:32:51.003Z,97503.34
2018-10-16T11:35:19.613Z,97499.63
2018-10-16T11:37:48.217Z,97500.37
2018-10-16T11:40:16.930Z,97490.77
2018-10-16T11:42:45.531Z,97494.01
2018-10-16T11:45:14.180Z,97493.53
2018-10-16T11:47:42.836Z,97496.95
2018-10-16T11:50:12.397Z,97501.55
2018-10-16T11:52:41.428Z,97489.94
2018-10-16T11:55:10.684Z,97492.03
2018-10-16T11:57:39.386Z,97488.19
2018-10-16T12:00:11.621Z,97493.54
2018-10-16T12:02:40.281Z,97490.67
2018-10-16T12:05:08.797Z,97487.50
2018-10-16T12:07:37.487Z,97489.09
2018-10-16T12:10:06.476Z,97485.53
2018-10-16T12:12:35.052Z,97485.09
2018-10-16T12:15:03.671Z,97485.83
2018-10-16T12:17:37.452Z,97489.46
2018-10-16T12:20:10.951Z,97490.49
2018-10-16T12:22:39.522Z,97486.84
2018-10-16T12:25:08.593Z,97490.62
2018-10-16T12:27:37.140Z,97490.19
2018-10-16T12:30:06.932Z,97488.50
2018-10-16T12:32:35.820Z,97489.04
2018-10-16T12:35:04.600Z,97487.92
2018-10-16T12:37:33.171Z,97490.00
2018-10-16T12:40:01.775Z,97485.38
2018-10-16T12:42:30.376Z,97483.82
2018-10-16T12:44:58.979Z,97481.28
2018-10-16T12:47:27.600Z,97481.81
2018-10-16T12:49:56.199Z,97478.15
2018-10-16T12:52:24.760Z,97481.07
2018-10-16T12:54:53.337Z,97476.52
2018-10-16T12:57:21.986Z,97478.92
2018-10-16T12:59:50.633Z,97484.91
2018-10-16T13:02:19.149Z,97480.95
2018-10-16T13:04:48.447Z,97485.44
2018-10-16T13:07:24.128Z,97484.30
2018-10-16T13:09:52.791Z,97486.32
2018-10-16T13:12:21.420Z,97486.19
2018-10-16T13:14:50.008Z,97481.42
2018-10-16T13:17:18.790Z,97485.12
2018-10-16T13:19:47.340Z,97482.65
2018-10-16T13:22:15.930Z,97483.89
2018-10-16T13:24:44.623Z,97487.59
2018-10-16T13:27:13.227Z,97485.27
2018-10-16T13:29:41.951Z,97483.09
2018-10-16T13:32:10.663Z,97486.47
2018-10-16T13:34:39.267Z,97486.19
2018-10-16T13:37:07.903Z,97478.89
2018-10-16T13:39:36.656Z,97485.57
2018-10-16T13:42:05.328Z,97478.07
2018-10-16T13:44:33.896Z,97478.89
2018-10-16T13:47:02.596Z,97478.42
2018-10-16T13:49:31.183Z,97481.22
2018-10-16T13:51:59.830Z,97481.48
2018-10-16T13:54:28.395Z,97480.86
2018-10-16T13:56:57.027Z,97474.58
2018-10-16T13:59:25.572Z,97482.70
2018-10-16T14:01:54.303Z,97478.31
2018-10-16T14:04:22.871Z,97476.51
2018-10-16T14:06:51.444Z,97476.86
2018-10-16T14:09:20.289Z,97477.45
2018-10-16T14:11:48.868Z,97480.59
2018-10-16T14:14:17.509Z,97478.63
2018-10-16T14:16:46.320Z,97475.69
2018-10-16T14:19:25.748Z,97478.08
2018-10-16T14:22:01.366Z,97475.91
2018-10-16T14:24:32.067Z,97481.17
2018-10-16T14:27:04.656Z,97478.58
2018-10-16T14:29:37.148Z,97472.58
2018-10-16T14:32:07.042Z,97475.28
2018-10-16T14:34:39.224Z,97477.76
2018-10-16T14:37:10.924Z,97479.52
2018-10-16T14:39:41.322Z,97482.46
2018-10-16T14:42:12.130Z,97480.93
2018-10-16T14:44:40.876Z,97474.06
2018-10-16T14:47:13.425Z,97472.41
2018-10-16T14:49:47.028Z,97475.28
2018-10-16T14:52:17.764Z,97475.12
2018-10-16T14:54:48.878Z,97473.90
2018-10-16T14:57:19.446Z,97474.52
2018-10-16T14:59:52.064Z,97472.06
2018-10-16T15:02:25.152Z,97470.22
2018-10-16T15:04:56.844Z,97467.16
2018-10-16T15:07:26.635Z,97467.58
2018-10-16T15:09:58.918Z,97476.16
2018-10-16T15:12:35.025Z,97473.78
2018-10-16T15:15:07.442Z,97467.31
2018-10-16T15:17:43.519Z,97467.65
2018-10-16T15:20:15.352Z,97466.00
2018-10-16T15:22:45.563Z,97460.83
2018-10-16T15:25:18.676Z,97466.47
2018-10-16T15:27:50.926Z,97468.59
2018-10-16T15:30:22.288Z,97466.69
2018-10-16T15:32:52.296Z,97472.61
2018-10-16T15:35:24.274Z,97467.98
2018-10-16T15:37:53.635Z,97467.72
2018-10-16T15:40:24.500Z,97469.28
2018-10-16T15:42:55.521Z,97472.88
2018-10-16T15:45:27.929Z,97476.47
2018-10-16T15:47:57.575Z,97478.11
2018-10-16T15:50:29.390Z,97476.03
2018-10-16T15:53:02.440Z,97477.33
2018-10-16T15:55:34.319Z,97475.06
2018-10-16T15:58:03.058Z,97474.50
2018-10-16T16:00:35.348Z,97480.63
2018-10-16T16:03:04.552Z,97480.69
2018-10-16T16:05:36.079Z,97481.92
2018-10-16T16:08:05.267Z,97486.64
2018-10-16T16:10:34.495Z,97485.61
2018-10-16T16:13:08.637Z,97493.09
2018-10-16T16:15:37.332Z,97490.78
2018-10-16T16:18:06.484Z,97491.69
2018-10-16T16:20:35.092Z,97494.22
2018-10-16T16:23:03.680Z,97497.23
2018-10-16T16:25:32.285Z,97501.02
2018-10-16T16:28:01.274Z,97491.55
2018-10-16T16:30:29.962Z,97498.72
2018-10-16T16:32:58.552Z,97498.54
2018-10-16T16:35:27.515Z,97500.80
2018-10-16T16:37:56.164Z,97497.20
2018-10-16T16:40:24.733Z,97506.27
2018-10-16T16:42:53.417Z,97504.28
2018-10-16T16:45:22.004Z,97506.67
2018-10-16T16:47:50.584Z,97499.77
2018-10-16T16:50:19.208Z,97504.23
2018-10-16T16:52:47.776Z,97500.48
2018-10-16T16:55:16.684Z,97501.94
2018-10-16T16:57:45.312Z,97501.73
2018-10-16T17:00:14.960Z,97505.95
2018-10-16T17:02:45.052Z,97499.75
2018-10-16T17:05:14.354Z,97510.07
2018-10-16T17:07:43.736Z,97510.55
2018-10-16T17:10:12.556Z,97511.70
2018-10-16T17:12:41.672Z,97512.55
2018-10-16T17:15:13.254Z,97510.90
2018-10-16T17:17:43.345Z,97513.01
2018-10-16T17:20:13.019Z,97516.06
2018-10-16T17:22:41.563Z,97522.34
2018-10-16T17:25:13.331Z,97520.59
2018-10-16T17:27:41.887Z,97524.22
2018-10-16T17:30:12.945Z,97528.27
2018-10-16T17:32:42.292Z,97533.64
2018-10-16T17:35:11.888Z,97530.81
2018-10-16T17:37:41.072Z,97535.59
2018-10-16T17:40:12.080Z,97535.48
2018-10-16T17:42:40.755Z,97531.19
2018-10-16T17:45:11.376Z,97538.75
2018-10-16T17:47:39.991Z,97537.77
2018-10-16T17:50:11.374Z,97542.10
2018-10-16T17:52:40.256Z,97541.95
2018-10-16T17:55:09.688Z,97545.33
2018-10-16T17:57:38.400Z,97545.66
2018-10-16T18:00:09.860Z,97550.69
2018-10-16T18:02:38.428Z,97553.94
2018-10-16T18:05:07.103Z,97552.99
2018-10-16T18:07:35.728Z,97552.63
2018-10-16T18:10:04.336Z,97557.04
2018-10-16T18:12:32.928Z,97557.77
2018-10-16T18:15:01.597Z,97562.55
2018-10-16T18:17:30.187Z,97564.75
2018-10-16T18:19:58.795Z,97565.09
2018-10-16T18:22:27.511Z,97563.34
2018-10-16T18:24:56.155Z,97564.84
2018-10-16T18:27:24.737Z,97559.67
2018-10-16T18:29:53.531Z,97563.22
2018-10-16T18:32:22.056Z,97563.86
2018-10-16T18:34:50.636Z,97567.67
2018-10-16T18:37:19.295Z,97566.78
2018-10-16T18:39:47.929Z,97568.02
2018-10-16T18:42:16.466Z,97563.30
2018-10-16T18:44:45.052Z,97562.80
2018-10-16T18:47:13.656Z,97558.70
2018-10-16T18:49:42.276Z,97561.77
2018-10-16T18:52:10.967Z,97563.13
2018-10-16T18:54:39.523Z,97561.47
2018-10-16T18:57:08.367Z,97563.08
2018-10-16T18:59:36.940Z,97565.28
2018-10-16T19:02:05.684Z,97566.11
2018-10-16T19:04:34.266Z,97570.45
2018-10-16T19:07:03.355Z,97571.09
2018-10-16T19:09:31.924Z,97573.30
2018-10-16T19:12:00.491Z,97574.58
2018-10-16T19:14:29.211Z,97572.09
2018-10-16T19:16:57.879Z,97572.67
2018-10-16T19:19:26.447Z,97572.81
2018-10-16T19:21:55.055Z,97573.02
2018-10-16T19:24:23.628Z,97569.83
2018-10-16T19:26:52.234Z,97573.22
2018-10-16T19:29:20.943Z,97569.67
2018-10-16T19:31:49.673Z,97572.19
2018-10-16T19:34:18.284Z,97575.86
2018-10-16T19:36:47.008Z,97582.03
2018-10-16T19:39:15.627Z,97578.06
2018-10-16T19:41:44.172Z,97580.12
2018-10-16T19:44:12.824Z,97589.59
2018-10-16T19:46:41.423Z,97593.25
2018-10-16T19:49:10.264Z,97588.31
2018-10-16T19:51:38.966Z,97593.29
2018-10-16T19:54:07.584Z,97592.47
2018-10-16T19:56:36.147Z,97592.95
2018-10-16T19:59:04.780Z,97590.77
2018-10-16T20:01:33.351Z,97589.27
2018-10-16T20:04:01.974Z,97584.78
2018-10-16T20:06:30.728Z,97590.09
2018-10-16T20:08:59.414Z,97590.77
2018-10-16T20:11:27.980Z,97588.91
2018-10-16T20:13:56.648Z,97582.88
2018-10-16T20:16:25.457Z,97588.57
2018-10-16T20:18:54.234Z,97584.53
2018-10-16T20:21:23.023Z,97584.19
2018-10-16T20:23:51.605Z,97587.02
2018-10-16T20:26:20.215Z,97583.63
2018-10-16T20:28:48.883Z,97582.61
2018-10-16T20:31:17.485Z,97582.53
2018-10-16T20:33:46.080Z,97577.50
2018-10-16T20:36:14.673Z,97581.26
2018-10-16T20:38:45.460Z,97588.74
2018-10-16T20:41:14.308Z,97590.02
2018-10-16T20:43:42.912Z,97590.58
2018-10-16T20:46:11.528Z,97590.85
2018-10-16T20:48:40.276Z,97586.55
2018-10-16T20:51:08.920Z,97591.50
2018-10-16T20:53:37.528Z,97586.63
2018-10-16T20:56:06.625Z,97583.25
2018-10-16T20:58:35.693Z,97587.27
2018-10-16T21:01:04.908Z,97590.28
2018-10-16T21:03:34.474Z,97585.07
2018-10-16T21:06:03.782Z,97585.42
2018-10-16T21:08:32.572Z,97581.60
2018-10-16T21:11:01.229Z,97586.83
2018-10-16T21:13:29.843Z,97579.39
2018-10-16T21:16:00.019Z,97581.81
2018-10-16T21:18:29.363Z,97582.59
2018-10-16T21:20:57.956Z,97580.07
2018-10-16T21:23:26.807Z,97579.84
2018-10-16T21:25:55.432Z,97580.28
2018-10-16T21:28:24.080Z,97576.12
2018-10-16T21:30:52.996Z,97583.22
2018-10-16T21:33:22.688Z,97581.82
2018-10-16T21:35:51.377Z,97581.80
2018-10-16T21:38:19.960Z,97578.23
2018-10-16T21:40:48.826Z,97579.22
2018-10-16T21:43:17.424Z,97579.00
2018-10-16T21:45:46.018Z,97585.03
2018-10-16T21:48:14.908Z,97577.05
2018-10-16T21:50:43.525Z,97581.72
2018-10-16T21:53:12.146Z,97575.88
2018-10-16T21:55:41.123Z,97574.59
2018-10-16T21:58:09.944Z,97575.46
2018-10-16T22:00:44.184Z,97574.12
2018-10-16T22:03:12.748Z,97566.23
2018-10-16T22:05:41.568Z,97567.23
2018-10-16T22:08:10.447Z,97558.16
2018-10-16T22:10:39.269Z,97562.09
2018-10-16T22:13:10.419Z,97559.76
2018-10-16T22:15:39.062Z,97565.92
2018-10-16T22:18:07.712Z,97558.48
2018-10-16T22:20:36.922Z,97556.63
2018-10-16T22:23:06.545Z,97562.43
2018-10-16T22:25:35.271Z,97557.67
2018-10-16T22:28:04.100Z,97561.89
2018-10-16T22:30:32.844Z,97563.32
2018-10-16T22:33:01.655Z,97565.00
2018-10-16T22:35:30.285Z,97563.41
2018-10-16T22:37:58.851Z,97569.19
2018-10-16T22:40:27.440Z,97564.02
2018-10-16T22:42:56.251Z,97568.29
2018-10-16T22:45:25.216Z,97572.66
2018-10-16T22:47:53.805Z,97575.05
2018-10-16T22:50:22.847Z,97575.05
2018-10-16T22:52:51.454Z,97574.25
2018-10-16T22:55:20.061Z,97578.44
2018-10-16T22:57:48.840Z,97583.41
2018-10-16T23:00:20.696Z,97584.25
2018-10-16T23:02:51.335Z,97583.03
2018-10-16T23:05:21.303Z,97591.52
2018-10-16T23:07:51.939Z,97587.39
2018-10-16T23:10:23.398Z,97594.37
2018-10-16T23:12:58.512Z,97589.98
2018-10-16T23:15:28.767Z,97584.23
2018-10-16T23:17:58.669Z,97584.67
2018-10-16T23:20:28.225Z,97582.86
2018-10-16T23:22:59.887Z,97578.35
2018-10-16T23:25:31.822Z,97581.00
2018-10-16T23:28:01.878Z,97578.59
2018-10-16T23:30:31.479Z,97581.05
2018-10-16T23:33:01.275Z,97581.94
2018-10-16T23:35:30.568Z,97578.50
2018-10-16T23:37:59.356Z,97571.73
2018-10-16T23:40:28.174Z,97580.36
2018-10-16T23:42:56.950Z,97574.22
2018-10-16T23:45:25.476Z,97573.15
2018-10-16T23:47:54.551Z,97578.03
2018-10-16T23:50:23.250Z,97576.13
2018-10-16T23:52:51.833Z,97573.06
2018-10-16T23:55:20.559Z,97574.78
2018-10-16T23:57:49.133Z,97571.94
